Nestor — V2FB3 — position and weather

sailwx.info

Track history (hours):
 
Tides and Currents Weather Stations Pressure Air Temp Water Temp Dewpoint Dewpoint Depression Visibility Wind Speed Wind Dir Waves Ship Positions

Nestor

Last reported at 2016-Feb-12 11:26 UTC. Time now 2016-Feb-12 12:10 UTC.
Position N 52°20' E 003°08'.

Length 88 m; draft 5.5 m.

Type: Cargo ship. MMSI: 305620000.

Date/timePositionNaut miles runAvg speedWind from/ knotsBaromVisibWave heightAir tempDewpointWater temp
2016-Feb-12 11:26N 52°20' E 003°08'1010.8
2016-Feb-12 10:33N 52°28' E 003°18'1010.3
2016-Feb-12 09:33N 52°36' E 003°28'10 9.4
2016-Feb-12 08:32N 52°43' E 003°38'75 8.3
2016-Feb-11 23:31N 53°35' E 005°09'7 7.7
2016-Feb-11 22:33N 53°37' E 005°21'7 6.9
2016-Feb-11 21:33N 53°39' E 005°32'7 7.2
2016-Feb-11 20:34N 53°42' E 005°43'7 6.9
2016-Feb-11 19:33N 53°44' E 005°54'7 7.4
2016-Feb-11 18:33N 53°47' E 006°06'9 8.5
2016-Feb-11 17:33N 53°49' E 006°20'9 8.9
2016-Feb-11 16:34N 53°51' E 006°34'9 8.7
2016-Feb-11 15:34N 53°53' E 006°49'8 8.1
2016-Feb-11 14:33N 53°56' E 007°02'8 7.6
2016-Feb-11 13:34N 53°58' E 007°14'7 6.6
2016-Feb-11 12:34N 53°59' E 007°25'6 5.8
2016-Feb-11 11:33N 54°00' E 007°35'6 5.6
2016-Feb-11 10:34N 54°01' E 007°44'5 4.9
2016-Feb-11 09:33N 54°01' E 007°53'5 5.4
2016-Feb-11 08:33N 54°01' E 008°02'6 6.1
2016-Feb-11 07:33N 54°01' E 008°12'6 5.9
2016-Feb-11 06:34N 53°60' E 008°22'1111.4
2016-Feb-11 05:33N 53°56' E 008°40'1010.3
2016-Feb-11 04:34N 53°51' E 008°55'8 8.2
2016-Feb-11 03:34N 53°54' E 009°09'1 0.7
2016-Feb-11 02:33N 53°54' E 009°09'6 6.2
2016-Feb-11 01:33N 53°59' E 009°16'24 6.7
2016-Feb-10 22:03N 54°17' E 009°40'6 8.3
2016-Feb-10 21:22N 54°22' E 009°47'7 8.2
2016-Feb-10 20:34N 54°21' E 009°58'5 5.3
2016-Feb-10 19:34N 54°22' E 010°07'0 0.4
2016-Feb-10 18:30N 54°22' E 010°08'0 0.0
2016-Feb-10 17:33N 54°22' E 010°08'0 0.1
2016-Feb-10 16:34N 54°22' E 010°08'1 0.6
2016-Feb-10 15:33N 54°22' E 010°09'7 6.6
2016-Feb-10 14:31N 54°28' E 010°15'9 8.7
2016-Feb-10 13:31N 54°32' E 010°27'9 8.9
2016-Feb-10 12:33N 54°35' E 010°42'9 8.6
2016-Feb-10 11:33N 54°36' E 010°56'8 8.2
2016-Feb-10 10:33N 54°36' E 011°10'9 8.7
2016-Feb-10 09:33N 54°32' E 011°24'8 8.1
2016-Feb-10 08:34N 54°29' E 011°36'8 7.9
2016-Feb-10 07:33N 54°26' E 011°49'8 7.8
2016-Feb-10 06:33N 54°27' E 012°03'6 6.3
2016-Feb-10 05:33N 54°30' E 012°12'8 6.8
2016-Feb-10 04:26N 54°37' E 012°16'72 7.3
2016-Feb-09 18:33N 54°12' E 014°12'9 9.4
2016-Feb-09 17:33N 54°03' E 014°15'9 8.9
2016-Feb-09 16:33N 53°54' E 014°16'1 0.8
2016-Feb-09 15:31N 53°54' E 014°16'0 0.0
2016-Feb-09 14:31N 53°54' E 014°16'0 0.0
2016-Feb-09 13:31N 53°54' E 014°16'0 0.0
2016-Feb-09 12:31N 53°54' E 014°16'0 0.0
2016-Feb-09 11:31N 53°54' E 014°16'0 0.0
2016-Feb-09 10:31N 53°54' E 014°16'0 0.0
2016-Feb-09 09:31N 53°54' E 014°16'0 0.0
2016-Feb-09 08:31N 53°54' E 014°16'0 0.0
2016-Feb-09 07:31N 53°54' E 014°16'0 0.0
2016-Feb-09 06:31N 53°54' E 014°16'0 0.0
2016-Feb-09 05:31N 53°54' E 014°16'0 0.0
2016-Feb-09 04:31N 53°54' E 014°16'0 0.0
2016-Feb-09 03:31N 53°54' E 014°16'0 0.0
2016-Feb-09 02:31N 53°54' E 014°16'0 0.0
2016-Feb-09 01:31N 53°54' E 014°16'0 0.0
2016-Feb-09 00:31N 53°54' E 014°16'0 0.0
2016-Feb-08 23:31N 53°54' E 014°16'0 0.0
2016-Feb-08 22:31N 53°54' E 014°16'0 0.0
2016-Feb-08 21:31N 53°54' E 014°16'0 0.0
2016-Feb-08 20:31N 53°54' E 014°16'0 0.0
2016-Feb-08 19:31N 53°54' E 014°16'0 0.0
2016-Feb-08 18:31N 53°54' E 014°16'0 0.0
2016-Feb-08 17:31N 53°54' E 014°16'0 0.0
2016-Feb-08 16:31N 53°54' E 014°16'0 0.0
2016-Feb-08 15:31N 53°54' E 014°16'0 0.0
2016-Feb-08 14:31N 53°54' E 014°16'0 0.0
2016-Feb-08 13:28N 53°54' E 014°16'0 0.0
2016-Feb-08 12:31N 53°54' E 014°16'0 0.0
2016-Feb-08 11:31N 53°54' E 014°16'2 2.2
2016-Feb-08 10:34N 53°56' E 014°17'3 2.5
2016-Feb-08 09:32N 53°58' E 014°15'0 0.0
2016-Feb-08 08:32N 53°58' E 014°15'0 0.0
2016-Feb-08 07:32N 53°58' E 014°15'0 0.0
2016-Feb-08 06:32N 53°58' E 014°15'0 0.0
2016-Feb-08 05:32N 53°58' E 014°15'0 0.0
2016-Feb-08 04:32N 53°58' E 014°15'0 0.0
2016-Feb-08 03:32N 53°58' E 014°15'0 0.0
2016-Feb-08 02:32N 53°58' E 014°15'0 0.0
2016-Feb-08 01:32N 53°58' E 014°15'0 0.0
2016-Feb-08 00:32N 53°58' E 014°15'0 0.0
2016-Feb-07 23:32N 53°58' E 014°15'0 0.0
2016-Feb-07 22:29N 53°58' E 014°15'0 0.0
2016-Feb-07 21:32N 53°58' E 014°15'0 0.0
2016-Feb-07 20:32N 53°58' E 014°15'0 0.0
2016-Feb-07 19:32N 53°58' E 014°15'0 0.0
2016-Feb-07 18:32N 53°58' E 014°15'0 0.0
2016-Feb-07 17:32N 53°58' E 014°15'0 0.0
2016-Feb-07 16:32N 53°58' E 014°15'0 0.0
2016-Feb-07 15:32N 53°58' E 014°15'0 0.0
2016-Feb-07 14:32N 53°58' E 014°15'0 0.0
2016-Feb-07 13:32N 53°58' E 014°15'0 0.0
2016-Feb-07 12:32N 53°58' E 014°15'0 0.0
2016-Feb-07 11:32N 53°58' E 014°15'0 0.0
2016-Feb-07 10:32N 53°58' E 014°15'0 0.0
2016-Feb-07 09:32N 53°58' E 014°15'0 0.0
2016-Feb-07 08:32N 53°58' E 014°15'0 0.0
2016-Feb-07 07:32N 53°58' E 014°15'0 0.0
2016-Feb-07 06:32N 53°58' E 014°15'0 0.0
2016-Feb-07 05:32N 53°58' E 014°15'0 0.0
2016-Feb-07 04:32N 53°58' E 014°15'0 0.0
2016-Feb-07 03:32N 53°58' E 014°15'0 0.0
2016-Feb-07 02:32N 53°58' E 014°15'0 0.0
2016-Feb-07 01:32N 53°58' E 014°15'0 0.0
2016-Feb-07 00:32N 53°58' E 014°15'0 0.0
2016-Feb-06 23:32N 53°58' E 014°15'0 0.0
2016-Feb-06 22:32N 53°58' E 014°15'0 0.0
2016-Feb-06 21:32N 53°58' E 014°15'0 0.0
2016-Feb-06 20:32N 53°58' E 014°15'0 0.0
2016-Feb-06 19:32N 53°58' E 014°15'0 0.0
2016-Feb-06 18:32N 53°58' E 014°15'0 0.0
2016-Feb-06 17:32N 53°58' E 014°15'0 0.0
2016-Feb-06 16:32N 53°58' E 014°15'0 0.0
2016-Feb-06 15:32N 53°58' E 014°15'0 0.0
2016-Feb-06 14:32N 53°58' E 014°15'0 0.0
2016-Feb-06 13:32N 53°58' E 014°15'0 0.0
2016-Feb-06 11:32N 53°58' E 014°15'0 0.0
2016-Feb-06 10:32N 53°58' E 014°15'0 0.0
2016-Feb-06 09:32N 53°58' E 014°15'0 0.0
2016-Feb-06 08:32N 53°58' E 014°15'0 0.0
2016-Feb-06 07:32N 53°58' E 014°15'0 0.0
2016-Feb-06 06:32N 53°58' E 014°15'0 0.0
2016-Feb-06 05:32N 53°58' E 014°15'0 0.0
2016-Feb-06 04:32N 53°58' E 014°15'0 0.0
2016-Feb-06 03:32N 53°58' E 014°15'0 0.0
2016-Feb-06 02:32N 53°58' E 014°15'0 0.0
2016-Feb-06 01:32N 53°58' E 014°15'0 0.0
2016-Feb-06 00:32N 53°58' E 014°15'0 0.0
2016-Feb-05 23:32N 53°58' E 014°15'0 0.0
2016-Feb-05 22:32N 53°58' E 014°15'0 0.0
2016-Feb-05 21:29N 53°58' E 014°15'0 0.0
2016-Feb-05 20:20N 53°58' E 014°15'0 0.2
2016-Feb-05 19:33N 53°58' E 014°15'7 7.4
2016-Feb-05 18:33N 54°05' E 014°13'82 8.1
2016-Feb-05 08:26N 55°14' E 012°55'7 8.2
2016-Feb-05 07:33N 55°17' E 012°44'7 6.6
2016-Feb-05 06:33N 55°23' E 012°40'9 8.8
2016-Feb-05 05:33N 55°32' E 012°42'8 7.7
2016-Feb-05 04:33N 55°40' E 012°41'9 9.3
2016-Feb-05 03:33N 55°49' E 012°40'10 9.6
2016-Feb-05 02:33N 55°58' E 012°38'8 8.4
2016-Feb-05 01:33N 56°06' E 012°32'13 9.1
2016-Feb-05 00:10N 56°09' E 012°10'610.3
2016-Feb-04 23:34N 56°08' E 011°59'50 7.8
2016-Feb-04 17:07N 56°04' E 010°30'5 9.3
2016-Feb-04 16:33N 56°07' E 010°22'5 1.6
2016-Feb-04 13:28N 56°09' E 010°13'0 0.0
2016-Feb-04 12:16N 56°09' E 010°13'0 0.0
2016-Feb-04 11:31N 56°09' E 010°13'0 0.0
2016-Feb-04 10:32N 56°09' E 010°13'0 0.0
2016-Feb-04 06:34N 56°09' E 010°13'4 3.7
2016-Feb-04 05:33N 56°08' E 010°20'52 6.3
2016-Feb-03 21:18N 55°21' E 011°02'8 7.1
2016-Feb-03 20:08N 55°13' E 011°06'4 7.4
2016-Feb-03 19:33N 55°09' E 011°03'8 8.1
2016-Feb-03 18:33N 55°01' E 011°02'8 7.6
2016-Feb-03 17:33N 54°55' E 010°54'7 7.5
2016-Feb-03 16:33N 54°48' E 010°53'7 7.3
2016-Feb-03 15:33N 54°40' E 010°53'8 8.4
2016-Feb-03 14:33N 54°34' E 010°42'18 9.2
2016-Feb-03 12:33N 54°26' E 010°14'5 5.3
2016-Feb-03 11:33N 54°22' E 010°09'5 5.1
2016-Feb-03 10:33N 54°21' E 009°60'8 7.8
2016-Feb-03 09:33N 54°21' E 009°47'37 5.3
2016-Feb-03 02:33N 53°53' E 009°07'5 5.3
2016-Feb-03 01:33N 53°51' E 008°58'7 7.1
2016-Feb-03 00:34N 53°51' E 008°46'6 6.3
2016-Feb-02 23:33N 53°56' E 008°40'7 7.5
2016-Feb-02 22:34N 53°59' E 008°28'9 9.2
2016-Feb-02 21:33N 53°60' E 008°12'8 7.9
2016-Feb-02 20:33N 53°57' E 007°60'6 5.7
2016-Feb-02 19:33N 53°52' E 007°55'5 5.4
2016-Feb-02 18:33N 53°51' E 008°03'8 7.8
2016-Feb-02 17:33N 53°45' E 008°13'8 8.1
2016-Feb-02 16:33N 53°40' E 008°23'7 7.4
2016-Feb-02 15:33N 53°35' E 008°32'7 6.6
2016-Feb-02 14:33N 53°28' E 008°30'9 9.1
2016-Feb-02 13:33N 53°19' E 008°29'9 9.4
2016-Feb-02 12:34N 53°10' E 008°35'8 7.8
2016-Feb-02 11:33N 53°06' E 008°46'  
Track history (hours):
 
Tides and Currents Weather Stations Pressure Air Temp Water Temp Dewpoint Dewpoint Depression Visibility Wind Speed Wind Dir Waves Ship Positions

Nestor

Last reported at 2016-Feb-12 11:26 UTC. Time now 2016-Feb-12 12:10 UTC.
Position N 52°20' E 003°08'.

Length 88 m; draft 5.5 m.

Type: Cargo ship. MMSI: 305620000.

Date/timePositionNaut miles runAvg speedWind from/ knotsBaromVisibWave heightAir tempDewpointWater temp
2016-Feb-12 11:26N 52°20' E 003°08'1010.8
2016-Feb-12 10:33N 52°28' E 003°18'1010.3
2016-Feb-12 09:33N 52°36' E 003°28'10 9.4
2016-Feb-12 08:32N 52°43' E 003°38'75 8.3
2016-Feb-11 23:31N 53°35' E 005°09'7 7.7
2016-Feb-11 22:33N 53°37' E 005°21'7 6.9
2016-Feb-11 21:33N 53°39' E 005°32'7 7.2
2016-Feb-11 20:34N 53°42' E 005°43'7 6.9
2016-Feb-11 19:33N 53°44' E 005°54'7 7.4
2016-Feb-11 18:33N 53°47' E 006°06'9 8.5
2016-Feb-11 17:33N 53°49' E 006°20'9 8.9
2016-Feb-11 16:34N 53°51' E 006°34'9 8.7
2016-Feb-11 15:34N 53°53' E 006°49'8 8.1
2016-Feb-11 14:33N 53°56' E 007°02'8 7.6
2016-Feb-11 13:34N 53°58' E 007°14'7 6.6
2016-Feb-11 12:34N 53°59' E 007°25'6 5.8
2016-Feb-11 11:33N 54°00' E 007°35'6 5.6
2016-Feb-11 10:34N 54°01' E 007°44'5 4.9
2016-Feb-11 09:33N 54°01' E 007°53'5 5.4
2016-Feb-11 08:33N 54°01' E 008°02'6 6.1
2016-Feb-11 07:33N 54°01' E 008°12'6 5.9
2016-Feb-11 06:34N 53°60' E 008°22'1111.4
2016-Feb-11 05:33N 53°56' E 008°40'1010.3
2016-Feb-11 04:34N 53°51' E 008°55'8 8.2
2016-Feb-11 03:34N 53°54' E 009°09'1 0.7
2016-Feb-11 02:33N 53°54' E 009°09'6 6.2
2016-Feb-11 01:33N 53°59' E 009°16'24 6.7
2016-Feb-10 22:03N 54°17' E 009°40'6 8.3
2016-Feb-10 21:22N 54°22' E 009°47'7 8.2
2016-Feb-10 20:34N 54°21' E 009°58'5 5.3
2016-Feb-10 19:34N 54°22' E 010°07'0 0.4
2016-Feb-10 18:30N 54°22' E 010°08'0 0.0
2016-Feb-10 17:33N 54°22' E 010°08'0 0.1
2016-Feb-10 16:34N 54°22' E 010°08'1 0.6
2016-Feb-10 15:33N 54°22' E 010°09'7 6.6
2016-Feb-10 14:31N 54°28' E 010°15'9 8.7
2016-Feb-10 13:31N 54°32' E 010°27'9 8.9
2016-Feb-10 12:33N 54°35' E 010°42'9 8.6
2016-Feb-10 11:33N 54°36' E 010°56'8 8.2
2016-Feb-10 10:33N 54°36' E 011°10'9 8.7
2016-Feb-10 09:33N 54°32' E 011°24'8 8.1
2016-Feb-10 08:34N 54°29' E 011°36'8 7.9
2016-Feb-10 07:33N 54°26' E 011°49'8 7.8
2016-Feb-10 06:33N 54°27' E 012°03'6 6.3
2016-Feb-10 05:33N 54°30' E 012°12'8 6.8
2016-Feb-10 04:26N 54°37' E 012°16'72 7.3
2016-Feb-09 18:33N 54°12' E 014°12'9 9.4
2016-Feb-09 17:33N 54°03' E 014°15'9 8.9
2016-Feb-09 16:33N 53°54' E 014°16'1 0.8
2016-Feb-09 15:31N 53°54' E 014°16'0 0.0
2016-Feb-09 14:31N 53°54' E 014°16'0 0.0
2016-Feb-09 13:31N 53°54' E 014°16'0 0.0
2016-Feb-09 12:31N 53°54' E 014°16'0 0.0
2016-Feb-09 11:31N 53°54' E 014°16'0 0.0
2016-Feb-09 10:31N 53°54' E 014°16'0 0.0
2016-Feb-09 09:31N 53°54' E 014°16'0 0.0
2016-Feb-09 08:31N 53°54' E 014°16'0 0.0
2016-Feb-09 07:31N 53°54' E 014°16'0 0.0
2016-Feb-09 06:31N 53°54' E 014°16'0 0.0
2016-Feb-09 05:31N 53°54' E 014°16'0 0.0
2016-Feb-09 04:31N 53°54' E 014°16'0 0.0
2016-Feb-09 03:31N 53°54' E 014°16'0 0.0
2016-Feb-09 02:31N 53°54' E 014°16'0 0.0
2016-Feb-09 01:31N 53°54' E 014°16'0 0.0
2016-Feb-09 00:31N 53°54' E 014°16'0 0.0
2016-Feb-08 23:31N 53°54' E 014°16'0 0.0
2016-Feb-08 22:31N 53°54' E 014°16'0 0.0
2016-Feb-08 21:31N 53°54' E 014°16'0 0.0
2016-Feb-08 20:31N 53°54' E 014°16'0 0.0
2016-Feb-08 19:31N 53°54' E 014°16'0 0.0
2016-Feb-08 18:31N 53°54' E 014°16'0 0.0
2016-Feb-08 17:31N 53°54' E 014°16'0 0.0
2016-Feb-08 16:31N 53°54' E 014°16'0 0.0
2016-Feb-08 15:31N 53°54' E 014°16'0 0.0
2016-Feb-08 14:31N 53°54' E 014°16'0 0.0
2016-Feb-08 13:28N 53°54' E 014°16'0 0.0
2016-Feb-08 12:31N 53°54' E 014°16'0 0.0
2016-Feb-08 11:31N 53°54' E 014°16'2 2.2
2016-Feb-08 10:34N 53°56' E 014°17'3 2.5
2016-Feb-08 09:32N 53°58' E 014°15'0 0.0
2016-Feb-08 08:32N 53°58' E 014°15'0 0.0
2016-Feb-08 07:32N 53°58' E 014°15'0 0.0
2016-Feb-08 06:32N 53°58' E 014°15'0 0.0
2016-Feb-08 05:32N 53°58' E 014°15'0 0.0
2016-Feb-08 04:32N 53°58' E 014°15'0 0.0
2016-Feb-08 03:32N 53°58' E 014°15'0 0.0
2016-Feb-08 02:32N 53°58' E 014°15'0 0.0
2016-Feb-08 01:32N 53°58' E 014°15'0 0.0
2016-Feb-08 00:32N 53°58' E 014°15'0 0.0
2016-Feb-07 23:32N 53°58' E 014°15'0 0.0
2016-Feb-07 22:29N 53°58' E 014°15'0 0.0
2016-Feb-07 21:32N 53°58' E 014°15'0 0.0
2016-Feb-07 20:32N 53°58' E 014°15'0 0.0
2016-Feb-07 19:32N 53°58' E 014°15'0 0.0
2016-Feb-07 18:32N 53°58' E 014°15'0 0.0
2016-Feb-07 17:32N 53°58' E 014°15'0 0.0
2016-Feb-07 16:32N 53°58' E 014°15'0 0.0
2016-Feb-07 15:32N 53°58' E 014°15'0 0.0
2016-Feb-07 14:32N 53°58' E 014°15'0 0.0
2016-Feb-07 13:32N 53°58' E 014°15'0 0.0
2016-Feb-07 12:32N 53°58' E 014°15'0 0.0
2016-Feb-07 11:32N 53°58' E 014°15'0 0.0
2016-Feb-07 10:32N 53°58' E 014°15'0 0.0
2016-Feb-07 09:32N 53°58' E 014°15'0 0.0
2016-Feb-07 08:32N 53°58' E 014°15'0 0.0
2016-Feb-07 07:32N 53°58' E 014°15'0 0.0
2016-Feb-07 06:32N 53°58' E 014°15'0 0.0
2016-Feb-07 05:32N 53°58' E 014°15'0 0.0
2016-Feb-07 04:32N 53°58' E 014°15'0 0.0
2016-Feb-07 03:32N 53°58' E 014°15'0 0.0
2016-Feb-07 02:32N 53°58' E 014°15'0 0.0
2016-Feb-07 01:32N 53°58' E 014°15'0 0.0
2016-Feb-07 00:32N 53°58' E 014°15'0 0.0
2016-Feb-06 23:32N 53°58' E 014°15'0 0.0
2016-Feb-06 22:32N 53°58' E 014°15'0 0.0
2016-Feb-06 21:32N 53°58' E 014°15'0 0.0
2016-Feb-06 20:32N 53°58' E 014°15'0 0.0
2016-Feb-06 19:32N 53°58' E 014°15'0 0.0
2016-Feb-06 18:32N 53°58' E 014°15'0 0.0
2016-Feb-06 17:32N 53°58' E 014°15'0 0.0
2016-Feb-06 16:32N 53°58' E 014°15'0 0.0
2016-Feb-06 15:32N 53°58' E 014°15'0 0.0
2016-Feb-06 14:32N 53°58' E 014°15'0 0.0
2016-Feb-06 13:32N 53°58' E 014°15'0 0.0
2016-Feb-06 11:32N 53°58' E 014°15'0 0.0
2016-Feb-06 10:32N 53°58' E 014°15'0 0.0
2016-Feb-06 09:32N 53°58' E 014°15'0 0.0
2016-Feb-06 08:32N 53°58' E 014°15'0 0.0
2016-Feb-06 07:32N 53°58' E 014°15'0 0.0
2016-Feb-06 06:32N 53°58' E 014°15'0 0.0
2016-Feb-06 05:32N 53°58' E 014°15'0 0.0
2016-Feb-06 04:32N 53°58' E 014°15'0 0.0
2016-Feb-06 03:32N 53°58' E 014°15'0 0.0
2016-Feb-06 02:32N 53°58' E 014°15'0 0.0
2016-Feb-06 01:32N 53°58' E 014°15'0 0.0
2016-Feb-06 00:32N 53°58' E 014°15'0 0.0
2016-Feb-05 23:32N 53°58' E 014°15'0 0.0
2016-Feb-05 22:32N 53°58' E 014°15'0 0.0
2016-Feb-05 21:29N 53°58' E 014°15'0 0.0
2016-Feb-05 20:20N 53°58' E 014°15'0 0.2
2016-Feb-05 19:33N 53°58' E 014°15'7 7.4
2016-Feb-05 18:33N 54°05' E 014°13'82 8.1
2016-Feb-05 08:26N 55°14' E 012°55'7 8.2
2016-Feb-05 07:33N 55°17' E 012°44'7 6.6
2016-Feb-05 06:33N 55°23' E 012°40'9 8.8
2016-Feb-05 05:33N 55°32' E 012°42'8 7.7
2016-Feb-05 04:33N 55°40' E 012°41'9 9.3
2016-Feb-05 03:33N 55°49' E 012°40'10 9.6
2016-Feb-05 02:33N 55°58' E 012°38'8 8.4
2016-Feb-05 01:33N 56°06' E 012°32'13 9.1
2016-Feb-05 00:10N 56°09' E 012°10'610.3
2016-Feb-04 23:34N 56°08' E 011°59'50 7.8
2016-Feb-04 17:07N 56°04' E 010°30'5 9.3
2016-Feb-04 16:33N 56°07' E 010°22'5 1.6
2016-Feb-04 13:28N 56°09' E 010°13'0 0.0
2016-Feb-04 12:16N 56°09' E 010°13'0 0.0
2016-Feb-04 11:31N 56°09' E 010°13'0 0.0
2016-Feb-04 10:32N 56°09' E 010°13'0 0.0
2016-Feb-04 06:34N 56°09' E 010°13'4 3.7
2016-Feb-04 05:33N 56°08' E 010°20'52 6.3
2016-Feb-03 21:18N 55°21' E 011°02'8 7.1
2016-Feb-03 20:08N 55°13' E 011°06'4 7.4
2016-Feb-03 19:33N 55°09' E 011°03'8 8.1
2016-Feb-03 18:33N 55°01' E 011°02'8 7.6
2016-Feb-03 17:33N 54°55' E 010°54'7 7.5
2016-Feb-03 16:33N 54°48' E 010°53'7 7.3
2016-Feb-03 15:33N 54°40' E 010°53'8 8.4
2016-Feb-03 14:33N 54°34' E 010°42'18 9.2
2016-Feb-03 12:33N 54°26' E 010°14'5 5.3
2016-Feb-03 11:33N 54°22' E 010°09'5 5.1
2016-Feb-03 10:33N 54°21' E 009°60'8 7.8
2016-Feb-03 09:33N 54°21' E 009°47'37 5.3
2016-Feb-03 02:33N 53°53' E 009°07'5 5.3
2016-Feb-03 01:33N 53°51' E 008°58'7 7.1
2016-Feb-03 00:34N 53°51' E 008°46'6 6.3
2016-Feb-02 23:33N 53°56' E 008°40'7 7.5
2016-Feb-02 22:34N 53°59' E 008°28'9 9.2
2016-Feb-02 21:33N 53°60' E 008°12'8 7.9
2016-Feb-02 20:33N 53°57' E 007°60'6 5.7
2016-Feb-02 19:33N 53°52' E 007°55'5 5.4
2016-Feb-02 18:33N 53°51' E 008°03'8 7.8
2016-Feb-02 17:33N 53°45' E 008°13'8 8.1
2016-Feb-02 16:33N 53°40' E 008°23'7 7.4
2016-Feb-02 15:33N 53°35' E 008°32'7 6.6
2016-Feb-02 14:33N 53°28' E 008°30'9 9.1
2016-Feb-02 13:33N 53°19' E 008°29'9 9.4
2016-Feb-02 12:34N 53°10' E 008°35'8 7.8
2016-Feb-02 11:33N 53°06' E 008°46'  

Dump ship's entire track history